Time;durP1;ratioP1;P1;durP2;ratioP2;P2;SDS_P1;SDS_P2;PMS_P1;PMS_P2;Temp;Humidity;BMP_temperature;BMP_pressure;BME280_temperature;BME280_humidity;BME280_pressure;Samples;Min_cycle;Max_cycle;Signal;HPM_P1;HPM_P2
2021/06/21 00:01:26;;;;;;;9.48;1.83;;;;;;;;;;5052514;28;20203;-48
2021/06/21 00:03:52;;;;;;;7.25;1.90;;;;;;;;;;5041388;28;20237;-48
2021/06/21 00:06:18;;;;;;;6.32;1.98;;;;;;;;;;5056010;28;20203;-48
2021/06/21 00:08:44;;;;;;;5.50;1.90;;;;;;;;;;5056461;28;20284;-48
2021/06/21 00:11:10;;;;;;;6.85;1.90;;;;;;;;;;5049157;28;20271;-48
2021/06/21 00:13:36;;;;;;;4.88;1.83;;;;;;;;;;5035685;28;20160;-48
2021/06/21 00:16:02;;;;;;;5.07;1.60;;;;;;;;;;5052246;28;20271;-48
2021/06/21 00:18:28;;;;;;;6.75;1.73;;;;;;;;;;5036635;28;20175;-48
2021/06/21 00:20:54;;;;;;;4.20;1.42;;;;;;;;;;5047103;28;20179;-48
2021/06/21 00:23:21;;;;;;;4.70;1.73;;;;;;;;;;5056279;28;20806;-47
2021/06/21 00:25:48;;;;;;;3.45;1.70;;;;;;;;;;5055741;28;20217;-48
2021/06/21 00:28:14;;;;;;;4.68;1.67;;;;;;;;;;5056212;28;20187;-48
2021/06/21 00:30:40;;;;;;;5.20;1.67;;;;;;;;;;5055730;28;20225;-48
2021/06/21 00:33:06;;;;;;;5.32;1.70;;;;;;;;;;5039234;28;20176;-48
2021/06/21 00:35:32;;;;;;;5.25;2.05;;;;;;;;;;5054828;28;20183;-48
2021/06/21 00:37:58;;;;;;;5.07;2.00;;;;;;;;;;5055420;28;20772;-47
2021/06/21 00:40:24;;;;;;;5.45;1.70;;;;;;;;;;5056211;28;20250;-47
2021/06/21 00:42:51;;;;;;;7.35;1.70;;;;;;;;;;5056003;28;20250;-47
2021/06/21 00:45:18;;;;;;;4.18;1.83;;;;;;;;;;5055527;28;20194;-47
2021/06/21 00:47:44;;;;;;;7.20;1.98;;;;;;;;;;5055243;28;20266;-47
2021/06/21 00:50:11;;;;;;;4.75;1.77;;;;;;;;;;5055956;28;20175;-47
2021/06/21 00:52:37;;;;;;;5.22;1.83;;;;;;;;;;5055694;28;20260;-47
2021/06/21 00:55:04;;;;;;;5.45;1.60;;;;;;;;;;5055764;28;20240;-47
2021/06/21 00:57:31;;;;;;;3.45;1.70;;;;;;;;;;5054931;28;20179;-47
2021/06/21 00:59:58;;;;;;;5.85;2.15;;;;;;;;;;5055263;28;20175;-47
2021/06/21 01:02:25;;;;;;;3.72;1.60;;;;;;;;;;5055586;28;20195;-47
2021/06/21 01:04:51;;;;;;;4.80;1.50;;;;;;;;;;5055750;28;20199;-47
2021/06/21 01:07:17;;;;;;;5.53;1.70;;;;;;;;;;5046481;28;20599;-47
2021/06/21 01:09:43;;;;;;;3.78;1.60;;;;;;;;;;5055114;28;20258;-47
2021/06/21 01:12:21;;;;;;;5.60;1.80;;;;;;;;;;5040283;28;20172;-48
2021/06/21 01:14:53;;;;;;;3.75;1.63;;;;;;;;;;5042098;28;20225;-47
2021/06/21 01:17:39;;;;;;;4.03;1.88;;;;;;;;;;5051243;28;20265;-47
2021/06/21 01:20:24;;;;;;;3.67;1.25;;;;;;;;;;5039627;28;20185;-47
2021/06/21 01:23:03;;;;;;;4.85;1.85;;;;;;;;;;5036308;28;20687;-47
2021/06/21 01:25:32;;;;;;;5.30;1.70;;;;;;;;;;5046818;28;20211;-48
2021/06/21 01:28:02;;;;;;;5.82;2.10;;;;;;;;;;5041965;28;20211;-47
2021/06/21 01:30:51;;;;;;;4.30;1.63;;;;;;;;;;5054860;28;20174;-47
2021/06/21 01:33:19;;;;;;;6.63;1.60;;;;;;;;;;5055094;28;20159;-48
2021/06/21 01:35:48;;;;;;;6.10;1.70;;;;;;;;;;5054328;28;20190;-48
2021/06/21 01:38:18;;;;;;;4.53;1.70;;;;;;;;;;5049112;28;20195;-48
2021/06/21 01:40:46;;;;;;;6.65;1.90;;;;;;;;;;5053711;28;20187;-48
2021/06/21 01:43:14;;;;;;;8.70;1.80;;;;;;;;;;5054475;28;20576;-48
2021/06/21 01:45:40;;;;;;;8.70;2.17;;;;;;;;;;5054077;28;20207;-47
2021/06/21 01:48:07;;;;;;;6.05;1.92;;;;;;;;;;5054446;28;21020;-48
2021/06/21 01:50:33;;;;;;;5.95;2.13;;;;;;;;;;5054733;28;20195;-48
2021/06/21 01:53:06;;;;;;;6.50;1.90;;;;;;;;;;5054883;28;20186;-48
2021/06/21 01:55:33;;;;;;;11.13;2.38;;;;;;;;;;5055092;28;20174;-48
2021/06/21 01:58:00;;;;;;;6.05;1.85;;;;;;;;;;5054334;28;20179;-48
2021/06/21 02:00:27;;;;;;;8.02;2.40;;;;;;;;;;5054040;28;20186;-48
2021/06/21 02:02:53;;;;;;;6.28;2.30;;;;;;;;;;5054464;28;20194;-48
2021/06/21 02:05:19;;;;;;;6.07;1.85;;;;;;;;;;5053933;28;20569;-48
2021/06/21 02:07:47;;;;;;;4.78;1.80;;;;;;;;;;5054108;28;20190;-48
2021/06/21 02:10:13;;;;;;;8.13;1.95;;;;;;;;;;5054527;28;20171;-48
2021/06/21 02:12:40;;;;;;;4.93;1.85;;;;;;;;;;5053915;28;20167;-48
2021/06/21 02:15:08;;;;;;;7.85;2.20;;;;;;;;;;5054134;28;20229;-48
2021/06/21 02:17:34;;;;;;;5.75;2.08;;;;;;;;;;5053901;28;20266;-47
2021/06/21 02:20:00;;;;;;;6.03;2.00;;;;;;;;;;5054321;28;20225;-48
2021/06/21 02:22:28;;;;;;;6.00;1.90;;;;;;;;;;5054402;28;20189;-48
2021/06/21 02:24:56;;;;;;;5.18;2.17;;;;;;;;;;5054601;28;20195;-48
2021/06/21 02:27:22;;;;;;;5.93;2.00;;;;;;;;;;5053451;28;20202;-48
2021/06/21 02:29:49;;;;;;;7.43;2.22;;;;;;;;;;5053766;28;20175;-48
2021/06/21 02:32:15;;;;;;;4.75;1.92;;;;;;;;;;5054102;28;20190;-48
2021/06/21 02:34:42;;;;;;;8.13;2.20;;;;;;;;;;5054439;28;20235;-48
2021/06/21 02:37:08;;;;;;;3.88;1.77;;;;;;;;;;5056341;28;20201;-48
2021/06/21 02:39:34;;;;;;;4.15;1.63;;;;;;;;;;5058512;28;20167;-48
2021/06/21 02:42:00;;;;;;;6.80;2.15;;;;;;;;;;5057752;28;20183;-48
2021/06/21 02:44:26;;;;;;;5.60;1.88;;;;;;;;;;5057877;28;20203;-48
2021/06/21 02:46:52;;;;;;;6.07;2.25;;;;;;;;;;5057771;28;20174;-48
2021/06/21 02:49:18;;;;;;;7.55;1.75;;;;;;;;;;5058335;28;20182;-47
2021/06/21 02:51:47;;;;;;;5.72;1.85;;;;;;;;;;5057739;28;20199;-48
2021/06/21 02:54:16;;;;;;;3.03;1.77;;;;;;;;;;5058218;28;20171;-48
2021/06/21 02:56:46;;;;;;;5.00;2.17;;;;;;;;;;5057081;28;20205;-48
2021/06/21 02:59:15;;;;;;;6.43;2.08;;;;;;;;;;5057858;28;20180;-48
2021/06/21 03:01:46;;;;;;;4.47;1.60;;;;;;;;;;5054385;28;20477;-48
2021/06/21 03:04:13;;;;;;;4.53;2.13;;;;;;;;;;5057878;28;20202;-48
2021/06/21 03:06:39;;;;;;;6.90;1.75;;;;;;;;;;5057440;28;20183;-48
2021/06/21 03:09:06;;;;;;;4.90;2.00;;;;;;;;;;5057542;28;20289;-48
2021/06/21 03:11:32;;;;;;;4.93;1.80;;;;;;;;;;5057220;28;20226;-48
2021/06/21 03:13:58;;;;;;;5.65;1.75;;;;;;;;;;5057871;28;20199;-48
2021/06/21 03:16:27;;;;;;;5.72;2.00;;;;;;;;;;5057144;28;20281;-48
2021/06/21 03:18:53;;;;;;;3.30;1.70;;;;;;;;;;5057679;28;20164;-47
2021/06/21 03:21:20;;;;;;;7.28;2.00;;;;;;;;;;5057481;28;20501;-48
2021/06/21 03:23:49;;;;;;;8.40;1.88;;;;;;;;;;5057303;28;20225;-47
2021/06/21 03:26:15;;;;;;;6.30;2.60;;;;;;;;;;5057039;28;20179;-48
2021/06/21 03:28:41;;;;;;;5.07;2.05;;;;;;;;;;5057685;28;20159;-48
2021/06/21 03:31:08;;;;;;;4.95;2.03;;;;;;;;;;5056961;28;20262;-48
2021/06/21 03:33:35;;;;;;;4.57;1.98;;;;;;;;;;5057463;28;20192;-48
2021/06/21 03:36:01;;;;;;;3.28;1.80;;;;;;;;;;5056870;28;20585;-48
2021/06/21 03:38:28;;;;;;;3.95;1.98;;;;;;;;;;5057297;28;20551;-48
2021/06/21 03:41:02;;;;;;;5.50;1.90;;;;;;;;;;5056700;28;20477;-48
2021/06/21 03:43:29;;;;;;;4.60;1.90;;;;;;;;;;5057381;28;20179;-47
2021/06/21 03:45:56;;;;;;;6.05;2.20;;;;;;;;;;5056154;28;20198;-47
2021/06/21 03:48:22;;;;;;;6.22;2.25;;;;;;;;;;5056874;28;20187;-47
2021/06/21 03:50:48;;;;;;;5.93;2.40;;;;;;;;;;5056455;28;20183;-47
2021/06/21 03:53:16;;;;;;;3.00;2.28;;;;;;;;;;5056842;28;20198;-47
2021/06/21 03:55:42;;;;;;;7.57;2.63;;;;;;;;;;5056836;28;20175;-48
2021/06/21 03:58:08;;;;;;;7.55;2.20;;;;;;;;;;5056694;28;20198;-47
2021/06/21 04:00:35;;;;;;;3.03;1.92;;;;;;;;;;5056228;28;20195;-48
2021/06/21 04:03:01;;;;;;;9.25;2.40;;;;;;;;;;5056466;28;20244;-48
2021/06/21 04:05:27;;;;;;;6.95;2.10;;;;;;;;;;5056183;28;20238;-47
2021/06/21 04:07:53;;;;;;;5.90;2.30;;;;;;;;;;5056400;28;20565;-48
2021/06/21 04:10:21;;;;;;;3.75;2.28;;;;;;;;;;5056406;28;20168;-47
2021/06/21 04:12:49;;;;;;;5.15;2.15;;;;;;;;;;5043138;28;20171;-47
2021/06/21 04:15:16;;;;;;;5.00;2.25;;;;;;;;;;5056299;28;20252;-47
2021/06/21 04:17:42;;;;;;;6.53;2.13;;;;;;;;;;5042044;28;20504;-47
2021/06/21 04:20:10;;;;;;;10.32;2.30;;;;;;;;;;5046364;28;20830;-47
2021/06/21 04:22:36;;;;;;;6.30;2.47;;;;;;;;;;5036664;28;20541;-47
2021/06/21 04:25:02;;;;;;;8.55;2.40;;;;;;;;;;5036603;28;20278;-48
2021/06/21 04:27:28;;;;;;;11.15;2.65;;;;;;;;;;5039559;28;20171;-47
2021/06/21 04:29:54;;;;;;;9.75;3.22;;;;;;;;;;5056051;28;20259;-48
2021/06/21 04:32:20;;;;;;;8.15;2.72;;;;;;;;;;5055801;28;20512;-47
2021/06/21 04:34:46;;;;;;;8.75;2.25;;;;;;;;;;5056396;28;20179;-47
2021/06/21 04:37:12;;;;;;;6.68;2.75;;;;;;;;;;5055384;28;20183;-47
2021/06/21 04:39:38;;;;;;;6.28;2.58;;;;;;;;;;5055771;28;20593;-48
2021/06/21 04:42:04;;;;;;;6.10;2.40;;;;;;;;;;5055753;28;20186;-47
2021/06/21 04:44:30;;;;;;;6.45;2.60;;;;;;;;;;5055444;28;20203;-48
2021/06/21 04:46:56;;;;;;;7.05;2.40;;;;;;;;;;5055249;28;20442;-48
2021/06/21 04:49:22;;;;;;;2.83;1.90;;;;;;;;;;5056108;28;20426;-47
2021/06/21 04:51:50;;;;;;;5.38;2.40;;;;;;;;;;5055641;28;20225;-47
2021/06/21 04:54:17;;;;;;;6.13;2.28;;;;;;;;;;5049842;28;20186;-47
2021/06/21 04:56:43;;;;;;;7.18;1.83;;;;;;;;;;5055388;28;20167;-48
2021/06/21 04:59:09;;;;;;;6.95;2.40;;;;;;;;;;5054784;28;20179;-47
2021/06/21 05:01:35;;;;;;;5.22;2.20;;;;;;;;;;5054239;28;20608;-47
2021/06/21 05:04:02;;;;;;;9.07;2.78;;;;;;;;;;5055081;28;20191;-47
2021/06/21 05:06:28;;;;;;;6.47;2.70;;;;;;;;;;5054768;28;20576;-47
2021/06/21 05:08:55;;;;;;;6.60;2.45;;;;;;;;;;5055811;28;20438;-47
2021/06/21 05:11:21;;;;;;;5.35;2.47;;;;;;;;;;5047093;28;20555;-47
2021/06/21 05:13:47;;;;;;;6.53;2.85;;;;;;;;;;5054777;28;20221;-47
2021/06/21 05:16:14;;;;;;;4.60;2.50;;;;;;;;;;5054258;28;20175;-48
2021/06/21 05:18:40;;;;;;;6.25;2.40;;;;;;;;;;5054948;28;20175;-47
2021/06/21 05:21:06;;;;;;;5.57;2.20;;;;;;;;;;5055472;28;20449;-47
2021/06/21 05:23:32;;;;;;;5.43;2.40;;;;;;;;;;5054710;28;20216;-48
2021/06/21 05:25:58;;;;;;;4.53;2.05;;;;;;;;;;5053877;28;20238;-48
2021/06/21 05:28:24;;;;;;;6.45;2.25;;;;;;;;;;5055074;28;20171;-47
2021/06/21 05:30:50;;;;;;;6.55;2.15;;;;;;;;;;5053322;28;20348;-48
2021/06/21 05:33:16;;;;;;;10.13;2.58;;;;;;;;;;5056968;28;20254;-47
2021/06/21 05:35:42;;;;;;;8.77;2.70;;;;;;;;;;5054669;28;20171;-47
2021/06/21 05:38:08;;;;;;;6.13;2.75;;;;;;;;;;5054553;28;20550;-48
2021/06/21 05:40:34;;;;;;;6.35;2.35;;;;;;;;;;5053048;28;20241;-47
2021/06/21 05:43:01;;;;;;;5.72;2.67;;;;;;;;;;5035056;28;20215;-48
2021/06/21 05:45:27;;;;;;;9.13;2.30;;;;;;;;;;5045978;28;20289;-47
2021/06/21 05:47:53;;;;;;;6.32;2.55;;;;;;;;;;5053562;28;20175;-48
2021/06/21 05:50:19;;;;;;;5.75;2.47;;;;;;;;;;5054503;28;20558;-47
2021/06/21 05:52:48;;;;;;;7.13;2.22;;;;;;;;;;5054936;28;20167;-47
2021/06/21 05:55:14;;;;;;;7.35;2.50;;;;;;;;;;5054367;28;20258;-47
2021/06/21 05:57:40;;;;;;;5.68;2.60;;;;;;;;;;5053888;28;20558;-47
2021/06/21 06:00:07;;;;;;;6.45;2.42;;;;;;;;;;5054077;28;20482;-47
2021/06/21 06:02:33;;;;;;;6.00;2.55;;;;;;;;;;5054416;28;20209;-48
2021/06/21 06:04:59;;;;;;;6.68;2.50;;;;;;;;;;5054585;28;20234;-47
2021/06/21 06:07:25;;;;;;;5.72;2.42;;;;;;;;;;5035005;28;20270;-47
2021/06/21 06:09:51;;;;;;;6.97;2.78;;;;;;;;;;5034521;28;20559;-48
2021/06/21 06:12:17;;;;;;;9.23;2.53;;;;;;;;;;5050949;28;20538;-47
2021/06/21 06:14:43;;;;;;;6.82;2.58;;;;;;;;;;5054048;28;20190;-47
2021/06/21 06:17:09;;;;;;;7.28;2.40;;;;;;;;;;5053953;28;20179;-47
2021/06/21 06:19:35;;;;;;;4.28;2.47;;;;;;;;;;5054342;28;20633;-48
2021/06/21 06:22:01;;;;;;;5.65;2.20;;;;;;;;;;5054396;28;20278;-47
2021/06/21 06:24:27;;;;;;;7.20;2.30;;;;;;;;;;5054061;28;20198;-48
2021/06/21 06:26:53;;;;;;;5.85;2.45;;;;;;;;;;5053451;28;20242;-47
2021/06/21 06:29:19;;;;;;;3.95;2.05;;;;;;;;;;5052619;28;20191;-47
2021/06/21 06:31:47;;;;;;;9.38;2.70;;;;;;;;;;5052727;28;20183;-48
2021/06/21 06:34:14;;;;;;;5.78;2.13;;;;;;;;;;5053228;28;20194;-47
2021/06/21 06:36:40;;;;;;;5.03;2.35;;;;;;;;;;5053879;28;20467;-47
2021/06/21 06:39:07;;;;;;;6.32;2.35;;;;;;;;;;5054122;28;20209;-47
2021/06/21 06:41:35;;;;;;;4.75;2.15;;;;;;;;;;5053546;28;20186;-47
2021/06/21 06:44:01;;;;;;;4.07;2.35;;;;;;;;;;5054192;28;20222;-47
2021/06/21 06:46:27;;;;;;;5.35;2.15;;;;;;;;;;5050117;28;20625;-47
2021/06/21 06:48:53;;;;;;;5.18;2.20;;;;;;;;;;5034247;28;20171;-47
2021/06/21 06:51:19;;;;;;;6.57;2.50;;;;;;;;;;5043756;28;20577;-47
2021/06/21 06:53:53;;;;;;;5.35;2.25;;;;;;;;;;5053648;28;20175;-47
2021/06/21 06:59:04;;;;;;;5.75;2.15;;;;;;;;;;5053877;28;20209;-48
2021/06/21 07:01:30;;;;;;;5.32;2.33;;;;;;;;;;5050136;28;20466;-48
2021/06/21 07:03:56;;;;;;;5.40;2.63;;;;;;;;;;5033964;28;20164;-48
2021/06/21 07:06:22;;;;;;;3.65;2.30;;;;;;;;;;5045816;28;20254;-48
2021/06/21 07:08:48;;;;;;;5.70;2.85;;;;;;;;;;5053698;28;20167;-47
2021/06/21 07:11:15;;;;;;;7.50;2.70;;;;;;;;;;5048430;28;20172;-48
2021/06/21 07:13:41;;;;;;;7.53;3.03;;;;;;;;;;5053919;28;20177;-47
2021/06/21 07:16:07;;;;;;;5.32;2.70;;;;;;;;;;5052755;28;20183;-48
2021/06/21 07:18:33;;;;;;;7.80;2.78;;;;;;;;;;5046581;28;20202;-48
2021/06/21 07:20:59;;;;;;;5.25;3.05;;;;;;;;;;5054046;28;20190;-47
2021/06/21 07:23:25;;;;;;;4.82;2.47;;;;;;;;;;5056327;28;20215;-48
2021/06/21 07:25:51;;;;;;;5.78;3.20;;;;;;;;;;5056743;28;20199;-48
2021/06/21 07:28:17;;;;;;;10.43;3.40;;;;;;;;;;5057371;28;20199;-47
2021/06/21 07:30:44;;;;;;;5.82;2.40;;;;;;;;;;5057214;28;20210;-48
2021/06/21 07:33:10;;;;;;;6.53;2.85;;;;;;;;;;5054097;28;20190;-47
2021/06/21 07:35:36;;;;;;;7.45;2.90;;;;;;;;;;5057198;28;20207;-48
2021/06/21 07:38:03;;;;;;;8.75;3.05;;;;;;;;;;5056596;28;20210;-47
2021/06/21 07:40:29;;;;;;;7.50;2.78;;;;;;;;;;5056820;28;20225;-47
2021/06/21 07:42:55;;;;;;;9.52;3.20;;;;;;;;;;5056871;28;20737;-48
2021/06/21 07:45:21;;;;;;;8.20;3.05;;;;;;;;;;5056669;28;20289;-48
2021/06/21 07:47:47;;;;;;;6.78;2.88;;;;;;;;;;5056376;28;20174;-48
2021/06/21 07:50:13;;;;;;;7.35;2.78;;;;;;;;;;5055762;28;20160;-48
2021/06/21 07:52:39;;;;;;;8.70;2.90;;;;;;;;;;5036930;28;20247;-48
2021/06/21 07:55:05;;;;;;;6.82;2.95;;;;;;;;;;5053299;28;20273;-48
2021/06/21 07:57:31;;;;;;;9.95;3.50;;;;;;;;;;5056266;28;20531;-48
2021/06/21 07:59:57;;;;;;;8.82;3.25;;;;;;;;;;5056433;28;20592;-48
2021/06/21 08:02:23;;;;;;;6.90;3.03;;;;;;;;;;5045753;28;20213;-48
2021/06/21 08:04:50;;;;;;;8.85;2.78;;;;;;;;;;5036139;28;20227;-48
2021/06/21 08:07:16;;;;;;;11.23;3.25;;;;;;;;;;5055776;28;20171;-48
2021/06/21 08:09:43;;;;;;;9.57;3.38;;;;;;;;;;5056489;28;20455;-48
2021/06/21 08:12:09;;;;;;;9.25;3.63;;;;;;;;;;5056099;28;20198;-48
2021/06/21 08:14:35;;;;;;;10.50;3.63;;;;;;;;;;5055854;28;20187;-48
2021/06/21 08:17:01;;;;;;;8.93;3.65;;;;;;;;;;5055537;28;20179;-48
2021/06/21 08:19:27;;;;;;;11.25;3.80;;;;;;;;;;5056254;28;20214;-47
2021/06/21 08:21:53;;;;;;;8.93;3.53;;;;;;;;;;5056150;28;20187;-48
2021/06/21 08:24:19;;;;;;;7.55;3.17;;;;;;;;;;5056463;28;20558;-47
2021/06/21 08:26:45;;;;;;;10.90;3.45;;;;;;;;;;5055785;28;20180;-48
2021/06/21 08:29:11;;;;;;;10.65;3.50;;;;;;;;;;5055416;28;20175;-47
2021/06/21 08:31:37;;;;;;;9.05;3.53;;;;;;;;;;5051865;28;20167;-47
2021/06/21 08:34:03;;;;;;;11.40;3.30;;;;;;;;;;5035090;28;20222;-47
2021/06/21 08:36:29;;;;;;;10.65;3.58;;;;;;;;;;5055462;28;20171;-47
2021/06/21 08:38:55;;;;;;;8.75;3.65;;;;;;;;;;5055862;28;20164;-48
2021/06/21 08:41:21;;;;;;;12.50;3.28;;;;;;;;;;5056070;28;20175;-47
2021/06/21 08:43:47;;;;;;;12.10;3.30;;;;;;;;;;5055921;28;20179;-47
2021/06/21 08:46:16;;;;;;;9.25;3.50;;;;;;;;;;5054008;28;20449;-47
2021/06/21 08:48:42;;;;;;;9.75;3.00;;;;;;;;;;5035795;28;20238;-48
2021/06/21 08:51:08;;;;;;;12.07;3.80;;;;;;;;;;5043843;28;20195;-47
2021/06/21 08:53:34;;;;;;;10.00;3.25;;;;;;;;;;5055603;28;20221;-47
2021/06/21 08:56:00;;;;;;;10.75;3.08;;;;;;;;;;5055289;28;20548;-48
2021/06/21 08:58:26;;;;;;;13.88;3.30;;;;;;;;;;5055668;28;20182;-48
2021/06/21 09:00:52;;;;;;;8.73;3.20;;;;;;;;;;5055148;28;20414;-48
2021/06/21 09:03:18;;;;;;;11.82;3.20;;;;;;;;;;5037051;28;20558;-48
2021/06/21 09:05:44;;;;;;;11.27;3.47;;;;;;;;;;5040744;28;20611;-48
2021/06/21 09:08:11;;;;;;;11.55;2.85;;;;;;;;;;5055334;28;20167;-48
2021/06/21 09:10:38;;;;;;;7.20;2.72;;;;;;;;;;5053788;28;20175;-48
2021/06/21 09:13:07;;;;;;;8.70;2.97;;;;;;;;;;5055934;28;20214;-48
2021/06/21 09:15:34;;;;;;;11.45;3.17;;;;;;;;;;5055059;28;20512;-47
2021/06/21 09:18:20;;;;;;;7.78;2.70;;;;;;;;;;5054154;28;20218;-47
2021/06/21 09:20:46;;;;;;;9.57;3.15;;;;;;;;;;5055387;28;20599;-47
2021/06/21 09:23:12;;;;;;;10.55;3.47;;;;;;;;;;5055309;28;20167;-48
2021/06/21 09:25:41;;;;;;;8.07;2.70;;;;;;;;;;5055291;28;20198;-47
2021/06/21 09:28:07;;;;;;;8.68;2.40;;;;;;;;;;5053790;28;20186;-48
2021/06/21 09:30:47;;;;;;;6.95;2.65;;;;;;;;;;5054796;28;20512;-48
2021/06/21 09:33:27;;;;;;;6.63;2.80;;;;;;;;;;5055309;28;20674;-48
2021/06/21 09:35:53;;;;;;;5.18;2.50;;;;;;;;;;5048777;28;20176;-48
2021/06/21 09:38:20;;;;;;;12.50;2.78;;;;;;;;;;5043973;28;20194;-48
2021/06/21 09:40:56;;;;;;;10.10;2.80;;;;;;;;;;5054325;28;20254;-47
2021/06/21 09:43:36;;;;;;;9.73;2.72;;;;;;;;;;5054801;28;20302;-47
2021/06/21 09:46:09;;;;;;;8.27;3.15;;;;;;;;;;5054147;28;20210;-48
2021/06/21 09:48:49;;;;;;;6.65;2.30;;;;;;;;;;5036535;28;20179;-48
2021/06/21 09:51:20;;;;;;;8.88;2.53;;;;;;;;;;5054208;28;20613;-47
2021/06/21 09:53:53;;;;;;;9.32;2.60;;;;;;;;;;5054867;28;20163;-47
2021/06/21 09:56:34;;;;;;;10.43;2.83;;;;;;;;;;5054204;28;20270;-47
2021/06/21 09:59:00;;;;;;;11.00;3.00;;;;;;;;;;5054680;28;20183;-47
2021/06/21 10:01:30;;;;;;;8.75;2.97;;;;;;;;;;5054218;28;20237;-48
2021/06/21 10:03:56;;;;;;;6.72;2.75;;;;;;;;;;5054144;28;20592;-48
2021/06/21 10:06:23;;;;;;;11.27;3.00;;;;;;;;;;5053886;28;20183;-48
2021/06/21 10:08:51;;;;;;;9.25;2.78;;;;;;;;;;5054621;28;20242;-47
2021/06/21 10:11:45;;;;;;;8.30;2.35;;;;;;;;;;5046309;28;20167;-47
2021/06/21 10:14:12;;;;;;;10.55;3.13;;;;;;;;;;5034712;28;20218;-48
2021/06/21 10:16:39;;;;;;;6.90;2.40;;;;;;;;;;5054159;28;20179;-48
2021/06/21 10:19:05;;;;;;;7.13;2.35;;;;;;;;;;5054197;28;20175;-47
2021/06/21 10:21:32;;;;;;;7.47;2.40;;;;;;;;;;5043362;28;20438;-47
2021/06/21 10:23:58;;;;;;;7.88;2.60;;;;;;;;;;5034318;28;20168;-48
2021/06/21 10:26:24;;;;;;;9.45;2.70;;;;;;;;;;5035933;28;20629;-47
2021/06/21 10:28:51;;;;;;;7.25;2.72;;;;;;;;;;5053875;28;20202;-48
2021/06/21 10:31:18;;;;;;;8.50;2.28;;;;;;;;;;5053798;28;20448;-48
2021/06/21 10:33:43;;;;;;;8.27;2.53;;;;;;;;;;5054364;28;20182;-48
2021/06/21 10:36:10;;;;;;;5.63;2.40;;;;;;;;;;5053717;28;20429;-48
2021/06/21 10:38:36;;;;;;;9.40;2.70;;;;;;;;;;5053932;28;20186;-47
2021/06/21 10:41:07;;;;;;;8.57;2.70;;;;;;;;;;5053883;28;20163;-48
2021/06/21 10:43:43;;;;;;;7.93;2.30;;;;;;;;;;5054127;28;20179;-48
2021/06/21 10:46:15;;;;;;;9.90;2.85;;;;;;;;;;5053017;28;20234;-47
2021/06/21 10:49:00;;;;;;;6.65;2.65;;;;;;;;;;5053810;28;20713;-48
2021/06/21 10:51:33;;;;;;;7.32;2.38;;;;;;;;;;5053823;28;20206;-48
2021/06/21 10:53:59;;;;;;;10.98;2.60;;;;;;;;;;5053758;28;20261;-48
2021/06/21 10:56:42;;;;;;;10.07;2.58;;;;;;;;;;5053334;28;20269;-48
2021/06/21 10:59:17;;;;;;;6.80;2.17;;;;;;;;;;5038400;28;20274;-47
2021/06/21 11:01:47;;;;;;;10.80;3.03;;;;;;;;;;5057387;28;20171;-48
2021/06/21 11:04:32;;;;;;;6.78;1.98;;;;;;;;;;5057529;28;20262;-47
2021/06/21 11:07:13;;;;;;;5.32;2.05;;;;;;;;;;5055958;28;20171;-48
2021/06/21 11:09:46;;;;;;;6.32;2.13;;;;;;;;;;5057478;28;20190;-48
2021/06/21 11:12:21;;;;;;;3.88;1.85;;;;;;;;;;5041857;28;20466;-48
2021/06/21 11:15:11;;;;;;;5.53;1.70;;;;;;;;;;5054283;28;20546;-48
2021/06/21 11:17:57;;;;;;;4.60;1.60;;;;;;;;;;5031218;28;20207;-47
2021/06/21 11:20:29;;;;;;;5.45;1.73;;;;;;;;;;5037738;28;20190;-48
2021/06/21 11:23:01;;;;;;;5.65;1.45;;;;;;;;;;5037253;28;20259;-48
2021/06/21 11:25:32;;;;;;;5.63;1.95;;;;;;;;;;5037447;28;20207;-48
2021/06/21 11:28:00;;;;;;;6.03;1.98;;;;;;;;;;5050010;28;20179;-48
2021/06/21 11:30:27;;;;;;;4.93;1.65;;;;;;;;;;5056960;28;20217;-48
2021/06/21 11:32:57;;;;;;;5.30;1.65;;;;;;;;;;5057367;28;20176;-48
2021/06/21 11:35:56;;;;;;;9.07;1.80;;;;;;;;;;5055294;28;20229;-48
2021/06/21 11:38:27;;;;;;;3.90;1.63;;;;;;;;;;5032696;28;20195;-48
2021/06/21 11:41:13;;;;;;;6.28;1.50;;;;;;;;;;5057304;28;20179;-47
2021/06/21 11:43:49;;;;;;;2.85;1.30;;;;;;;;;;5056940;28;20181;-48
2021/06/21 11:46:34;;;;;;;4.38;1.35;;;;;;;;;;5054323;28;20289;-48
2021/06/21 11:49:17;;;;;;;4.43;1.30;;;;;;;;;;5056705;28;20183;-48
2021/06/21 11:52:03;;;;;;;6.63;1.60;;;;;;;;;;5057097;28;20179;-48
2021/06/21 11:54:30;;;;;;;2.72;1.20;;;;;;;;;;5057235;28;20168;-48
2021/06/21 11:56:59;;;;;;;4.93;1.85;;;;;;;;;;5056408;28;20187;-48
2021/06/21 11:59:29;;;;;;;3.00;1.55;;;;;;;;;;5056685;28;20194;-48
2021/06/21 12:01:59;;;;;;;7.78;1.40;;;;;;;;;;5056443;28;20183;-48
2021/06/21 12:04:27;;;;;;;7.07;1.65;;;;;;;;;;5057079;28;20215;-48
2021/06/21 12:06:53;;;;;;;5.32;1.35;;;;;;;;;;5056106;28;20167;-48
2021/06/21 12:09:19;;;;;;;4.72;1.50;;;;;;;;;;5055275;28;20530;-47
2021/06/21 12:11:50;;;;;;;3.83;1.50;;;;;;;;;;5055088;28;20183;-47
2021/06/21 12:14:19;;;;;;;5.00;1.13;;;;;;;;;;5056173;28;20178;-48
2021/06/21 12:16:45;;;;;;;6.47;1.40;;;;;;;;;;5055973;28;20543;-48
2021/06/21 12:19:11;;;;;;;6.13;1.33;;;;;;;;;;5056092;28;20629;-48
2021/06/21 12:21:44;;;;;;;3.65;1.35;;;;;;;;;;5044806;28;20230;-48
2021/06/21 12:24:17;;;;;;;6.65;1.40;;;;;;;;;;5037805;28;20175;-48
2021/06/21 12:26:43;;;;;;;4.95;1.58;;;;;;;;;;5056010;28;20174;-48
2021/06/21 12:29:29;;;;;;;4.10;1.33;;;;;;;;;;5055935;28;20175;-48
2021/06/21 12:32:15;;;;;;;3.42;1.10;;;;;;;;;;5047365;28;20544;-48
2021/06/21 12:34:47;;;;;;;5.07;1.20;;;;;;;;;;5036678;28;20563;-48
2021/06/21 12:37:33;;;;;;;5.88;1.88;;;;;;;;;;5051875;28;20183;-48
2021/06/21 12:40:02;;;;;;;4.70;1.77;;;;;;;;;;5055853;28;20447;-48
2021/06/21 12:42:29;;;;;;;4.85;1.38;;;;;;;;;;5056111;28;20442;-48
2021/06/21 12:44:55;;;;;;;4.55;1.30;;;;;;;;;;5055790;28;20665;-48
2021/06/21 12:47:24;;;;;;;3.42;1.25;;;;;;;;;;5055879;28;20183;-48
2021/06/21 12:49:52;;;;;;;4.68;1.55;;;;;;;;;;5055871;28;20186;-48
2021/06/21 12:52:19;;;;;;;5.63;1.70;;;;;;;;;;5055647;28;20237;-48
2021/06/21 12:54:45;;;;;;;4.60;1.52;;;;;;;;;;5056150;28;20167;-47
2021/06/21 12:57:11;;;;;;;6.78;1.58;;;;;;;;;;5054675;28;20178;-48
2021/06/21 12:59:41;;;;;;;7.00;1.20;;;;;;;;;;5057564;28;20433;-48
2021/06/21 13:02:18;;;;;;;4.15;1.40;;;;;;;;;;5046063;28;20215;-48
2021/06/21 13:04:54;;;;;;;5.50;1.35;;;;;;;;;;5053109;28;20194;-48
2021/06/21 13:07:23;;;;;;;7.35;1.50;;;;;;;;;;5052971;28;20187;-48
2021/06/21 13:09:55;;;;;;;5.10;1.50;;;;;;;;;;5053591;28;20175;-48
2021/06/21 13:12:24;;;;;;;5.95;1.35;;;;;;;;;;5052834;28;20451;-48
2021/06/21 13:14:50;;;;;;;5.70;1.70;;;;;;;;;;5047364;28;20175;-48
2021/06/21 13:17:26;;;;;;;5.57;2.00;;;;;;;;;;5053692;28;20269;-48
2021/06/21 13:19:56;;;;;;;5.45;2.00;;;;;;;;;;5053950;28;20190;-48
2021/06/21 13:22:33;;;;;;;3.95;1.73;;;;;;;;;;5048848;28;20381;-48
2021/06/21 13:25:11;;;;;;;3.25;1.65;;;;;;;;;;5049658;28;20643;-48
2021/06/21 13:27:37;;;;;;;5.53;1.50;;;;;;;;;;5054146;28;20167;-48
2021/06/21 13:30:04;;;;;;;7.07;1.80;;;;;;;;;;5054343;28;20889;-47
2021/06/21 13:32:31;;;;;;;5.15;1.60;;;;;;;;;;5055356;28;20182;-48
2021/06/21 13:34:58;;;;;;;4.15;1.80;;;;;;;;;;5054755;28;20186;-48
2021/06/21 13:37:26;;;;;;;4.78;1.75;;;;;;;;;;5054529;28;20159;-48
2021/06/21 13:40:03;;;;;;;4.68;1.60;;;;;;;;;;5054838;28;20189;-48
2021/06/21 13:42:48;;;;;;;4.40;1.55;;;;;;;;;;5054479;28;20179;-47
2021/06/21 13:45:34;;;;;;;4.28;1.95;;;;;;;;;;5054487;28;20230;-47
2021/06/21 13:48:05;;;;;;;6.30;2.03;;;;;;;;;;5054117;28;20228;-48
2021/06/21 13:50:34;;;;;;;5.15;1.90;;;;;;;;;;5053337;28;20179;-48
2021/06/21 13:53:00;;;;;;;6.18;2.10;;;;;;;;;;5054632;28;20182;-47
2021/06/21 13:55:37;;;;;;;6.45;1.63;;;;;;;;;;5054591;28;20694;-48
2021/06/21 13:58:03;;;;;;;7.68;1.83;;;;;;;;;;5034536;28;20593;-48
2021/06/21 14:00:34;;;;;;;5.53;1.70;;;;;;;;;;5045534;28;20175;-48
2021/06/21 14:03:01;;;;;;;4.55;1.75;;;;;;;;;;5039382;28;20275;-48
2021/06/21 14:05:28;;;;;;;7.07;1.67;;;;;;;;;;5035965;28;20485;-48
2021/06/21 14:07:55;;;;;;;5.07;1.88;;;;;;;;;;5053337;28;20231;-48
2021/06/21 14:10:21;;;;;;;7.05;1.70;;;;;;;;;;5054121;28;20175;-48
2021/06/21 14:12:49;;;;;;;3.47;1.52;;;;;;;;;;5054489;28;20178;-48
2021/06/21 14:15:15;;;;;;;5.53;1.77;;;;;;;;;;5053818;28;20317;-48
2021/06/21 14:17:41;;;;;;;4.90;1.55;;;;;;;;;;5040618;28;20187;-47
2021/06/21 14:20:07;;;;;;;5.28;1.70;;;;;;;;;;5047392;28;20244;-48
2021/06/21 14:22:33;;;;;;;4.63;1.55;;;;;;;;;;5054372;28;20207;-48
2021/06/21 14:25:00;;;;;;;6.90;1.85;;;;;;;;;;5054072;28;20218;-48
2021/06/21 14:27:26;;;;;;;3.83;1.70;;;;;;;;;;5053474;28;20566;-47
2021/06/21 14:29:52;;;;;;;4.47;1.60;;;;;;;;;;5053820;28;20210;-48
2021/06/21 14:32:18;;;;;;;6.95;1.65;;;;;;;;;;5052880;28;20231;-48
2021/06/21 14:34:44;;;;;;;6.40;1.95;;;;;;;;;;5054122;28;20570;-48
2021/06/21 14:37:10;;;;;;;6.43;1.70;;;;;;;;;;5053661;28;20542;-48
2021/06/21 14:39:36;;;;;;;4.53;1.70;;;;;;;;;;5053905;28;20711;-48
2021/06/21 14:42:02;;;;;;;3.70;1.60;;;;;;;;;;5054081;28;20202;-47
2021/06/21 14:44:28;;;;;;;4.00;1.42;;;;;;;;;;5053159;28;20236;-48
2021/06/21 14:46:55;;;;;;;3.60;1.25;;;;;;;;;;5053329;28;20186;-47
2021/06/21 14:49:21;;;;;;;6.28;1.73;;;;;;;;;;5053821;28;20171;-48
2021/06/21 14:51:47;;;;;;;3.83;1.55;;;;;;;;;;5044786;28;20484;-47